Time;durP1;ratioP1;P1;durP2;ratioP2;P2;SDS_P1;SDS_P2;PMS_P1;PMS_P2;Temp;Humidity;BMP_temperature;BMP_pressure;BME280_temperature;BME280_humidity;BME280_pressure;Samples;Min_cycle;Max_cycle;Signal;HPM_P1;HPM_P2
2021/11/21 00:02:04;;;;;;;23.13;14.00;;;;;;;9.49;95.51;100057.84;3522219;82;98917;-84
2021/11/21 00:07:05;;;;;;;28.63;16.10;;;;;;;9.47;95.14;100051.35;3516810;82;98837;-84
2021/11/21 00:12:06;;;;;;;24.13;14.60;;;;;;;9.46;95.38;100047.03;3507018;82;98901;-83
2021/11/21 00:17:08;;;;;;;25.07;14.30;;;;;;;9.32;95.29;100017.28;3511646;82;33057;-83
2021/11/21 00:22:13;;;;;;;24.43;14.03;;;;;;;9.43;95.23;100028.55;3504994;82;98792;-83
2021/11/21 00:27:15;;;;;;;28.57;15.03;;;;;;;9.41;95.36;100024.02;3508209;82;98958;-83
2021/11/21 00:32:16;;;;;;;25.23;14.27;;;;;;;9.40;95.43;100015.59;3501521;82;99170;-82
2021/11/21 00:37:18;;;;;;;26.23;14.13;;;;;;;9.37;95.63;100001.83;3505360;82;98830;-82
2021/11/21 00:42:19;;;;;;;28.93;15.83;;;;;;;9.37;95.54;99999.85;3501247;82;98962;-83
2021/11/21 00:47:20;;;;;;;31.17;15.27;;;;;;;9.32;95.48;100002.17;3489277;83;33172;-83
2021/11/21 00:52:21;;;;;;;26.50;15.93;;;;;;;9.30;95.54;99999.80;3482836;83;99044;-83
2021/11/21 00:57:22;;;;;;;30.13;16.80;;;;;;;9.28;95.63;99991.73;3499175;83;99003;-83
2021/11/21 01:02:23;;;;;;;31.33;17.60;;;;;;;9.26;95.67;99989.95;3469912;83;98828;-83
2021/11/21 01:07:24;;;;;;;32.43;16.77;;;;;;;9.24;95.60;99984.84;3500768;83;98651;-81
2021/11/21 01:12:26;;;;;;;29.83;17.07;;;;;;;9.23;95.69;99981.09;3490798;83;99044;-84
2021/11/21 01:17:27;;;;;;;33.27;17.37;;;;;;;9.21;95.74;99974.59;3501972;83;32488;-83
2021/11/21 01:22:30;;;;;;;30.10;16.37;;;;;;;9.19;95.80;99970.66;3484561;83;98507;-83
2021/11/21 01:27:31;;;;;;;33.98;17.48;;;;;;;9.16;95.93;99966.70;3483516;83;98467;-83
2021/11/21 01:32:32;;;;;;;29.23;17.03;;;;;;;9.14;95.91;99961.39;3500715;83;98770;-82
2021/11/21 01:37:33;;;;;;;31.67;16.43;;;;;;;9.12;96.10;99950.81;3507044;83;98672;-82
2021/11/21 01:42:34;;;;;;;32.53;17.27;;;;;;;9.11;96.04;99938.22;3417635;84;98817;-82
2021/11/21 01:47:38;;;;;;;28.63;16.43;;;;;;;9.10;96.00;99940.77;3440101;84;36480;-82
2021/11/21 01:52:39;;;;;;;32.42;17.52;;;;;;;9.08;96.28;99928.59;3498841;82;98566;-81
2021/11/21 01:57:40;;;;;;;29.70;16.20;;;;;;;9.08;96.34;99917.04;3521074;82;98566;-83
2021/11/21 02:02:42;;;;;;;29.02;16.17;;;;;;;9.06;96.37;99911.13;3484758;82;98768;-82
2021/11/21 02:07:46;;;;;;;28.70;16.62;;;;;;;9.02;96.50;99906.20;3436688;84;98699;-81
2021/11/21 02:12:47;;;;;;;29.40;15.63;;;;;;;9.02;96.49;99897.17;3449770;83;98670;-83
2021/11/21 02:17:49;;;;;;;28.65;15.68;;;;;;;9.00;96.65;99897.55;3482258;83;35013;-82
2021/11/21 02:22:50;;;;;;;33.97;17.30;;;;;;;9.01;96.70;99896.41;3454215;83;105897;-83
2021/11/21 02:27:51;;;;;;;31.00;16.50;;;;;;;8.99;96.81;99895.97;3549854;82;98636;-83
2021/11/21 02:32:53;;;;;;;30.47;16.63;;;;;;;8.97;97.00;99887.91;3514962;82;98800;-83
2021/11/21 02:37:54;;;;;;;30.23;16.45;;;;;;;8.95;97.19;99880.05;3508187;82;98635;-83
2021/11/21 02:42:56;;;;;;;29.83;16.10;;;;;;;8.92;97.42;99874.53;3462759;83;98779;-82
2021/11/21 02:47:57;;;;;;;28.97;15.93;;;;;;;8.90;97.76;99868.05;3518207;82;98605;-83
2021/11/21 02:52:59;;;;;;;30.60;17.07;;;;;;;8.87;97.93;99874.88;3512059;83;98852;-82
2021/11/21 02:58:04;;;;;;;31.60;17.50;;;;;;;8.85;98.21;99871.16;3517304;83;98469;-83
2021/11/21 03:03:05;;;;;;;29.82;16.87;;;;;;;8.81;98.61;99866.22;3507464;82;98868;-83
2021/11/21 03:08:06;;;;;;;33.10;18.60;;;;;;;8.77;98.84;99855.02;3505716;83;98681;-82
2021/11/21 03:13:08;;;;;;;34.00;18.37;;;;;;;8.75;99.21;99860.08;3518559;83;99073;-83
2021/11/21 03:18:09;;;;;;;35.48;18.15;;;;;;;8.71;99.40;99857.31;3512851;83;98661;-83
2021/11/21 03:23:10;;;;;;;35.87;17.50;;;;;;;8.69;99.41;99855.53;3514530;81;98445;-82
2021/11/21 03:28:11;;;;;;;34.53;17.47;;;;;;;8.69;99.61;99855.53;3522854;83;98946;-83
2021/11/21 03:33:12;;;;;;;32.23;15.97;;;;;;;8.67;99.57;99850.99;3502301;83;98873;-84
2021/11/21 03:38:13;;;;;;;35.70;18.13;;;;;;;8.65;99.62;99840.99;3520118;83;98681;-83
2021/11/21 03:43:15;;;;;;;35.10;18.90;;;;;;;8.64;99.69;99835.88;3512538;83;98775;-83
2021/11/21 03:48:16;;;;;;;36.03;18.40;;;;;;;8.64;99.71;99831.77;3527406;82;98718;-83
2021/11/21 03:53:18;;;;;;;34.90;17.47;;;;;;;8.61;99.72;99825.08;3516681;82;98793;-83
2021/11/21 03:58:19;;;;;;;37.97;19.67;;;;;;;8.60;99.71;99825.45;3506224;82;98477;-84
2021/11/21 04:03:21;;;;;;;36.80;18.23;;;;;;;8.57;99.71;99817.39;3509471;82;98740;-84
2021/11/21 04:08:21;;;;;;;43.03;22.97;;;;;;;8.56;99.71;99808.96;3517480;82;98630;-83
2021/11/21 04:13:23;;;;;;;37.13;19.17;;;;;;;8.55;99.81;99807.39;3434981;84;98984;-82
2021/11/21 04:18:24;;;;;;;37.87;19.37;;;;;;;8.54;99.91;99809.14;3466228;84;98688;-82
2021/11/21 04:23:29;;;;;;;39.93;19.30;;;;;;;8.53;99.87;99802.08;3517649;82;98778;-83
2021/11/21 04:28:29;;;;;;;35.20;18.70;;;;;;;8.51;99.79;99792.85;3519857;82;98928;-82
2021/11/21 04:33:30;;;;;;;37.50;19.60;;;;;;;8.52;99.87;99793.66;3541096;82;98752;-83
2021/11/21 04:38:31;;;;;;;40.60;19.00;;;;;;;8.50;99.86;99785.03;3489012;82;98694;-83
2021/11/21 04:43:32;;;;;;;37.70;19.20;;;;;;;8.49;99.84;99776.57;3465593;84;98785;-84
2021/11/21 04:48:33;;;;;;;38.67;19.50;;;;;;;8.49;99.88;99779.31;3529055;82;98772;-83
2021/11/21 04:53:34;;;;;;;38.47;20.53;;;;;;;8.48;99.76;99781.86;3504965;82;98677;-83
2021/11/21 04:58:35;;;;;;;39.17;20.07;;;;;;;8.47;99.83;99766.58;3538863;82;98585;-83
2021/11/21 05:03:36;;;;;;;39.13;20.37;;;;;;;8.47;99.82;99765.20;3527920;82;99199;-83
2021/11/21 05:08:38;;;;;;;40.83;21.30;;;;;;;8.44;99.74;99768.12;3509278;82;98791;-83
2021/11/21 05:13:39;;;;;;;40.30;20.83;;;;;;;8.42;99.74;99773.20;3501742;82;99012;-83
2021/11/21 05:18:40;;;;;;;44.30;21.60;;;;;;;8.40;99.76;99765.92;3517197;82;98656;-83
2021/11/21 05:23:41;;;;;;;42.67;21.50;;;;;;;8.42;99.73;99768.29;3503251;82;98626;-83
2021/11/21 05:28:42;;;;;;;41.07;20.57;;;;;;;8.41;99.59;99760.63;3526310;82;98431;-83
2021/11/21 05:33:43;;;;;;;40.30;19.97;;;;;;;8.40;99.53;99756.33;3467088;83;98637;-82
2021/11/21 05:38:44;;;;;;;42.35;20.92;;;;;;;8.40;99.21;99755.55;3517480;83;99105;-83
2021/11/21 05:43:45;;;;;;;38.97;20.20;;;;;;;8.40;99.21;99759.67;3515932;82;98784;-83
2021/11/21 05:48:46;;;;;;;44.73;21.47;;;;;;;8.40;99.06;99744.59;3520504;82;98727;-82
2021/11/21 05:53:47;;;;;;;45.33;21.63;;;;;;;8.38;98.85;99742.22;3519172;82;98652;-83
2021/11/21 05:58:49;;;;;;;41.37;21.47;;;;;;;8.39;98.77;99739.67;3517144;82;98434;-83
2021/11/21 06:03:51;;;;;;;42.30;22.73;;;;;;;8.38;98.72;99742.78;3507801;81;98742;-82
2021/11/21 06:08:52;;;;;;;47.10;22.98;;;;;;;8.37;98.52;99734.36;3501617;81;98679;-83
2021/11/21 06:13:53;;;;;;;44.57;21.73;;;;;;;8.35;98.24;99729.25;3472157;82;99160;-83
2021/11/21 06:18:54;;;;;;;47.00;23.27;;;;;;;8.36;98.30;99727.31;3456220;83;98756;-82
2021/11/21 06:23:55;;;;;;;43.40;21.80;;;;;;;8.34;97.92;99720.06;3478841;82;98826;-83
2021/11/21 06:28:57;;;;;;;48.70;21.53;;;;;;;8.32;97.94;99719.06;3528529;82;26921;-83
2021/11/21 06:33:58;;;;;;;42.63;20.80;;;;;;;8.33;97.80;99714.34;3500296;82;98931;-83
2021/11/21 06:38:59;;;;;;;44.53;22.47;;;;;;;8.31;97.54;99712.58;3452670;84;98644;-82
2021/11/21 06:44:00;;;;;;;42.17;21.20;;;;;;;8.31;97.46;99713.38;3446195;84;98804;-83
2021/11/21 06:49:01;;;;;;;41.63;21.07;;;;;;;8.33;97.35;99715.15;3501306;82;98747;-83
2021/11/21 06:54:02;;;;;;;47.07;23.47;;;;;;;8.33;97.45;99719.26;3520728;81;98763;-82
2021/11/21 06:59:04;;;;;;;48.10;23.67;;;;;;;8.35;96.92;99727.11;3518356;82;26981;-82
2021/11/21 07:04:05;;;;;;;42.67;21.23;;;;;;;8.34;96.90;99729.66;3515167;82;98830;-83
2021/11/21 07:09:10;;;;;;;43.20;22.30;;;;;;;8.34;96.92;99731.02;3432690;84;98752;-83
2021/11/21 07:14:11;;;;;;;44.27;22.13;;;;;;;8.35;96.71;99726.52;3476516;83;98761;-84
2021/11/21 07:19:12;;;;;;;46.60;21.40;;;;;;;8.35;96.58;99716.14;3492987;83;98707;-84
2021/11/21 07:24:14;;;;;;;40.90;20.60;;;;;;;8.35;96.29;99710.06;3491836;83;98773;-83
2021/11/21 07:29:16;;;;;;;41.70;22.10;;;;;;;8.35;96.29;99710.06;3503371;83;28885;-83
2021/11/21 07:34:17;;;;;;;44.53;22.30;;;;;;;8.34;95.95;99708.49;3491966;83;98537;-81
2021/11/21 07:39:18;;;;;;;41.63;20.13;;;;;;;8.36;95.98;99716.34;3494590;83;98466;-83
2021/11/21 07:44:19;;;;;;;39.43;21.23;;;;;;;8.36;95.98;99721.26;3499295;82;99147;-83
2021/11/21 07:49:20;;;;;;;38.50;18.67;;;;;;;8.38;95.87;99719.48;3515544;82;97974;-82
2021/11/21 07:54:21;;;;;;;38.53;19.25;;;;;;;8.40;95.79;99720.69;3472964;83;98783;-83
2021/11/21 07:59:22;;;;;;;37.93;19.30;;;;;;;8.42;95.60;99714.25;3460957;83;35181;-84
2021/11/21 08:04:23;;;;;;;39.70;20.03;;;;;;;8.44;95.63;99710.54;3489949;83;98530;-82
2021/11/21 08:09:24;;;;;;;37.47;19.63;;;;;;;8.48;95.48;99714.10;3493605;83;100838;-84
2021/11/21 08:14:25;;;;;;;41.07;20.03;;;;;;;8.49;95.58;99709.39;3491246;83;98842;-83
2021/11/21 08:19:26;;;;;;;34.27;18.33;;;;;;;8.52;95.50;99710.02;3507033;82;98710;-82
2021/11/21 08:24:27;;;;;;;36.73;20.03;;;;;;;8.58;95.48;99712.03;3480534;83;98709;-82
2021/11/21 08:29:28;;;;;;;38.08;19.48;;;;;;;8.64;95.48;99711.08;3495288;83;27267;-85
2021/11/21 08:34:29;;;;;;;41.23;19.92;;;;;;;8.72;95.35;99710.75;3483976;83;98579;-84
2021/11/21 08:39:30;;;;;;;33.07;17.40;;;;;;;8.77;95.12;99710.39;3500389;83;98419;-82
2021/11/21 08:44:32;;;;;;;35.73;18.50;;;;;;;8.84;94.77;99711.80;3476648;83;98720;-84
2021/11/21 08:49:33;;;;;;;37.75;18.95;;;;;;;8.87;94.76;99719.28;3486834;83;98653;-84
2021/11/21 08:54:35;;;;;;;34.83;18.50;;;;;;;8.91;94.32;99722.04;3479584;83;98784;-84
2021/11/21 08:59:36;;;;;;;34.60;18.37;;;;;;;8.96;94.32;99718.94;3501222;83;33230;-83
2021/11/21 09:04:37;;;;;;;33.57;17.97;;;;;;;8.98;94.04;99725.62;3491350;83;98704;-85
2021/11/21 09:09:38;;;;;;;32.33;16.77;;;;;;;9.02;94.28;99725.64;3494387;83;98565;-86
2021/11/21 09:14:39;;;;;;;35.20;18.77;;;;;;;9.04;94.51;99726.03;3462353;83;98755;-86
2021/11/21 09:19:40;;;;;;;35.80;18.23;;;;;;;9.03;94.47;99725.26;3488178;83;98744;-86
2021/11/21 09:24:41;;;;;;;34.57;19.07;;;;;;;9.02;94.65;99718.77;3429502;83;98682;-85
2021/11/21 09:29:44;;;;;;;35.03;17.43;;;;;;;9.00;94.76;99714.27;3510311;82;34250;-86
2021/11/21 09:34:46;;;;;;;32.17;18.53;;;;;;;8.99;94.95;99723.07;3433509;84;98988;-85
2021/11/21 09:39:47;;;;;;;37.23;19.37;;;;;;;8.99;95.10;99707.20;3442491;84;98584;-85
2021/11/21 09:44:49;;;;;;;39.80;20.20;;;;;;;9.02;95.11;99714.66;3397453;84;99593;-85
2021/11/21 09:49:52;;;;;;;41.37;20.90;;;;;;;9.04;95.20;99715.05;3425634;84;98639;-84
2021/11/21 09:54:53;;;;;;;36.93;17.80;;;;;;;9.07;95.28;99715.09;3466295;82;99074;-85
2021/11/21 09:59:59;;;;;;;36.60;19.47;;;;;;;9.13;94.94;99715.50;3404681;85;33171;-86
2021/11/21 10:05:22;;;;;;;33.90;17.50;;;;;;;9.14;94.90;99709.64;3458923;84;98497;-86
2021/11/21 10:10:23;;;;;;;31.00;15.87;;;;;;;9.15;94.87;99702.17;3462881;83;98457;-85
2021/11/21 10:15:24;;;;;;;33.73;17.83;;;;;;;9.19;94.88;99697.49;3458653;84;98696;-86
2021/11/21 10:20:29;;;;;;;29.60;15.33;;;;;;;9.22;94.55;99699.48;3458635;83;98722;-85
2021/11/21 10:25:42;;;;;;;29.30;14.15;;;;;;;9.21;94.84;99702.03;3460317;84;98696;-86
2021/11/21 10:31:03;;;;;;;29.37;14.63;;;;;;;9.23;94.79;99701.84;3450789;83;99235;-85
2021/11/21 10:36:09;;;;;;;25.97;13.00;;;;;;;9.26;94.34;99698.92;3448412;83;98710;-86
2021/11/21 10:41:27;;;;;;;24.45;12.35;;;;;;;9.23;94.59;99704.59;3458557;83;99024;-87
2021/11/21 10:46:34;;;;;;;25.77;12.90;;;;;;;9.23;94.29;99698.30;3459858;84;98580;-87
2021/11/21 10:51:34;;;;;;;;;;;;;;;9.26;94.51;99694.80;3479166;83;98565;-88
2021/11/21 10:56:41;;;;;;;24.37;12.73;;;;;;;9.27;94.30;99692.25;3496529;83;84575;-87
2021/11/21 11:01:42;;;;;;;27.48;14.73;;;;;;;9.28;94.30;99689.70;3495874;83;99284;-82
2021/11/21 11:06:43;;;;;;;27.43;13.37;;;;;;;9.29;94.17;99698.13;3497166;83;97799;-83
2021/11/21 11:11:45;;;;;;;39.33;18.47;;;;;;;9.28;94.34;99694.59;3453683;83;494508;-83
2021/11/21 11:16:53;;;;;;;31.03;14.53;;;;;;;9.32;94.34;99695.39;3499976;83;97817;-83
2021/11/21 11:21:54;;;;;;;27.17;11.65;;;;;;;9.30;94.08;99689.52;3481453;83;98605;-85
2021/11/21 11:27:31;;;;;;;25.20;13.37;;;;;;;9.29;94.28;99691.27;3488566;83;98698;-84
2021/11/21 11:32:38;;;;;;;29.77;14.13;;;;;;;9.28;94.35;99696.56;3491868;83;98676;-83
2021/11/21 11:37:46;;;;;;;27.43;13.20;;;;;;;9.23;94.57;99690.06;3497390;83;98541;-86
2021/11/21 11:42:47;;;;;;;27.00;13.03;;;;;;;9.23;94.71;99690.86;3498469;83;99096;-85
2021/11/21 11:47:49;;;;;;;29.17;14.77;;;;;;;9.19;94.91;99690.05;3496832;83;33325;-85
2021/11/21 11:52:58;;;;;;;30.90;14.00;;;;;;;9.19;94.92;99693.38;3498108;83;98720;-87
2021/11/21 11:57:59;;;;;;;27.30;13.67;;;;;;;9.20;95.22;99690.83;3486787;83;98428;-87
2021/11/21 12:03:00;;;;;;;27.20;13.23;;;;;;;9.19;95.14;99695.55;3465798;83;98640;-88
2021/11/21 12:08:14;;;;;;;26.30;13.83;;;;;;;9.15;95.34;99699.42;3471258;82;98670;-87
2021/11/21 12:13:35;;;;;;;27.63;14.77;;;;;;;9.11;95.47;99703.53;3505521;82;99127;-87
2021/11/21 12:19:01;;;;;;;27.03;12.77;;;;;;;9.09;95.60;99703.71;3477156;84;98799;-87
2021/11/21 12:24:05;;;;;;;27.32;13.08;;;;;;;9.05;95.78;99703.69;3504757;82;99128;-84
2021/11/21 12:29:19;;;;;;;44.30;20.93;;;;;;;9.08;96.00;99705.69;3479646;83;98508;-83
2021/11/21 12:34:42;;;;;;;28.07;14.68;;;;;;;9.09;95.90;99700.39;3484528;83;98963;-83
2021/11/21 12:39:52;;;;;;;28.20;14.05;;;;;;;9.10;95.80;99699.22;3529937;82;98397;-83
2021/11/21 12:45:20;;;;;;;26.43;13.07;;;;;;;9.09;95.95;99705.88;3527770;82;98720;-85
2021/11/21 12:50:41;;;;;;;27.20;12.80;;;;;;;9.12;96.05;99708.45;3429450;83;98794;-84
2021/11/21 12:55:46;;;;;;;32.37;14.30;;;;;;;9.13;95.94;99709.44;3434967;84;98661;-86
2021/11/21 13:00:50;;;;;;;28.00;14.10;;;;;;;9.13;95.84;99700.41;3432539;84;97852;-87
2021/11/21 13:05:59;;;;;;;24.77;11.97;;;;;;;9.15;96.01;99702.97;3419104;84;98571;-84
2021/11/21 13:11:08;;;;;;;23.37;11.90;;;;;;;9.16;95.90;99707.28;3445769;84;98921;-86
2021/11/21 13:16:22;;;;;;;30.25;15.65;;;;;;;9.16;95.90;99718.87;3432876;84;98502;-86
2021/11/21 13:21:33;;;;;;;27.30;13.77;;;;;;;9.19;95.96;99717.51;3443114;84;98700;-86
2021/11/21 13:26:34;;;;;;;28.70;13.25;;;;;;;9.22;95.94;99709.86;3465881;84;98691;-83
2021/11/21 13:31:40;;;;;;;25.47;11.90;;;;;;;9.22;95.87;99708.48;3439948;84;98782;-86
2021/11/21 13:37:05;;;;;;;21.10;11.50;;;;;;;9.22;95.85;99715.95;3451155;84;98770;-85
2021/11/21 13:42:12;;;;;;;20.85;10.58;;;;;;;9.19;95.63;99716.70;3455245;84;98387;-84
2021/11/21 13:47:23;;;;;;;18.00;9.33;;;;;;;9.17;95.97;99723.95;3459860;84;98333;-83
2021/11/21 13:52:34;;;;;;;19.27;10.60;;;;;;;9.16;96.05;99714.14;3428266;83;98603;-84
2021/11/21 13:57:39;;;;;;;18.05;9.93;;;;;;;9.14;96.49;99726.11;3449423;84;99165;-84
2021/11/21 14:02:41;;;;;;;19.50;9.80;;;;;;;9.09;96.42;99728.41;3400616;84;98916;-85
2021/11/21 14:08:03;;;;;;;19.00;10.10;;;;;;;9.04;96.68;99729.57;3397413;85;98600;-82
2021/11/21 14:13:17;;;;;;;19.02;9.68;;;;;;;9.05;96.88;99725.66;3383667;85;98793;-82
2021/11/21 14:18:17;;;;;;;24.83;14.07;;;;;;;9.06;96.94;99735.45;3393603;85;98476;-82
2021/11/21 14:23:28;;;;;;;18.83;9.27;;;;;;;9.07;97.16;99734.87;3426791;84;98739;-82
2021/11/21 14:28:33;;;;;;;16.97;8.75;;;;;;;9.03;97.49;99740.93;3336599;86;98634;-83
2021/11/21 14:33:38;;;;;;;20.40;10.00;;;;;;;8.97;98.02;99752.86;3366504;85;98524;-81
2021/11/21 14:38:39;;;;;;;19.97;10.80;;;;;;;8.91;98.61;99753.59;3417828;84;98761;-83
2021/11/21 14:43:45;;;;;;;19.63;10.70;;;;;;;8.83;99.06;99757.47;3418101;83;98848;-83
2021/11/21 14:48:52;;;;;;;20.10;10.70;;;;;;;8.82;99.28;99763.53;3431147;84;98802;-83
2021/11/21 14:54:03;;;;;;;22.60;12.00;;;;;;;8.85;99.40;99766.10;3440241;84;98568;-83
2021/11/21 14:59:04;;;;;;;21.00;12.33;;;;;;;8.85;99.57;99766.10;3433531;84;98558;-83
2021/11/21 15:04:06;;;;;;;25.17;13.87;;;;;;;8.86;99.54;99771.21;3434086;84;99023;-84
2021/11/21 15:09:08;;;;;;;21.63;11.63;;;;;;;8.85;99.82;99774.33;3440076;84;98669;-84
2021/11/21 15:14:10;;;;;;;22.82;12.93;;;;;;;8.82;100.00;99785.48;3418285;84;98915;-83
2021/11/21 15:19:11;;;;;;;22.67;13.27;;;;;;;8.79;100.00;99776.62;3456852;83;98872;-84
2021/11/21 15:24:14;;;;;;;22.57;11.70;;;;;;;8.76;100.00;99783.46;3435272;84;98899;-83
2021/11/21 15:29:16;;;;;;;27.30;13.00;;;;;;;8.72;100.00;99793.64;3430111;83;97656;-83
2021/11/21 15:34:19;;;;;;;43.23;26.77;;;;;;;8.67;100.00;99793.98;3490416;83;98845;-83
2021/11/21 15:39:20;;;;;;;38.03;21.57;;;;;;;8.65;100.00;99803.16;3439828;84;98904;-84
2021/11/21 15:44:22;;;;;;;41.03;25.20;;;;;;;8.63;100.00;99802.77;3427506;84;98920;-83
2021/11/21 15:49:24;;;;;;;40.60;26.67;;;;;;;8.64;100.00;99807.08;3460075;83;98877;-83
2021/11/21 15:54:25;;;;;;;36.50;24.60;;;;;;;8.63;100.00;99807.67;3391916;85;98927;-84
2021/11/21 15:59:26;;;;;;;31.80;17.33;;;;;;;8.63;100.00;99821.39;3446309;83;40509;-83
2021/11/21 16:04:27;;;;;;;37.93;22.47;;;;;;;8.59;100.00;99824.67;3398116;84;99080;-84
2021/11/21 16:09:28;;;;;;;30.63;16.13;;;;;;;8.57;100.00;99822.88;3383675;85;98038;-83
2021/11/21 16:14:29;;;;;;;30.68;16.52;;;;;;;8.52;100.00;99825.99;3394065;85;98952;-83
2021/11/21 16:19:31;;;;;;;29.30;16.10;;;;;;;8.51;100.00;99833.98;3489742;83;98810;-84
2021/11/21 16:24:32;;;;;;;26.80;15.93;;;;;;;8.47;100.00;99840.61;3487044;83;98947;-84
2021/11/21 16:29:33;;;;;;;30.47;17.43;;;;;;;8.40;100.00;99841.32;3498652;83;33269;-84
2021/11/21 16:34:36;;;;;;;28.20;16.23;;;;;;;8.40;100.00;99852.29;3480549;83;99333;-83
2021/11/21 16:39:39;;;;;;;32.10;17.50;;;;;;;8.39;100.00;99855.43;3508038;83;98964;-83
2021/11/21 16:44:41;;;;;;;31.62;19.00;;;;;;;8.38;100.00;99865.59;3504526;83;98759;-83
2021/11/21 16:49:44;;;;;;;30.27;18.83;;;;;;;8.39;100.00;99867.77;3486739;82;98895;-83
2021/11/21 16:54:45;;;;;;;23.47;13.50;;;;;;;8.38;100.00;99882.05;3486685;83;98793;-82
2021/11/21 16:59:46;;;;;;;16.63;9.73;;;;;;;8.37;100.00;99888.70;3507233;83;33227;-83
2021/11/21 17:04:48;;;;;;;18.13;8.97;;;;;;;8.28;100.00;99893.67;3505530;83;98585;-84
2021/11/21 17:09:49;;;;;;;24.13;11.57;;;;;;;8.27;100.00;99896.78;3499319;83;98582;-83
2021/11/21 17:14:50;;;;;;;22.90;10.60;;;;;;;8.26;100.00;99903.44;3480305;83;98784;-83
2021/11/21 17:19:53;;;;;;;17.53;7.63;;;;;;;8.19;99.85;99902.73;3482377;83;98824;-84
2021/11/21 17:24:57;;;;;;;16.95;8.43;;;;;;;8.16;99.72;99902.13;3474630;83;98552;-84
2021/11/21 17:29:58;;;;;;;13.90;5.63;;;;;;;8.13;99.39;99900.11;3481003;83;47676;-83
2021/11/21 17:34:59;;;;;;;31.33;13.43;;;;;;;8.11;99.00;99898.91;3488416;83;98531;-83
2021/11/21 17:40:00;;;;;;;27.77;11.70;;;;;;;8.06;98.37;99908.83;3486569;83;98466;-83
2021/11/21 17:45:04;;;;;;;21.73;9.90;;;;;;;8.01;98.79;99908.59;3433434;83;98724;-83
2021/11/21 17:50:11;;;;;;;23.73;11.53;;;;;;;8.00;99.06;99919.34;3482669;83;98595;-84
2021/11/21 17:55:13;;;;;;;21.77;9.53;;;;;;;7.96;98.98;99916.36;3491178;83;98830;-83
2021/11/21 18:00:17;;;;;;;15.87;6.77;;;;;;;7.93;99.11;99918.45;3408132;85;26028;-83
2021/11/21 18:05:19;;;;;;;18.40;7.23;;;;;;;7.92;98.67;99926.47;3425416;84;98542;-83
2021/11/21 18:10:21;;;;;;;14.47;5.80;;;;;;;7.89;99.13;99942.27;3468990;83;98335;-84
2021/11/21 18:15:22;;;;;;;16.67;7.07;;;;;;;7.87;99.07;99950.08;3402755;85;98578;-83
2021/11/21 18:20:23;;;;;;;27.93;16.43;;;;;;;7.85;99.24;99949.67;3419953;85;98569;-84
2021/11/21 18:25:25;;;;;;;35.43;23.10;;;;;;;7.82;99.32;99953.94;3461309;83;144353;-83
2021/11/21 18:30:26;;;;;;;31.00;17.57;;;;;;;7.78;99.37;99964.05;3399991;84;98899;-83
2021/11/21 18:35:27;;;;;;;24.97;13.00;;;;;;;7.78;99.46;99975.56;3467039;83;98271;-84
2021/11/21 18:40:28;;;;;;;32.95;17.37;;;;;;;7.76;99.56;99978.70;3480395;83;99050;-83
2021/11/21 18:45:30;;;;;;;30.20;17.43;;;;;;;7.72;99.42;99989.38;3428343;83;98440;-82
2021/11/21 18:50:33;;;;;;;24.87;13.20;;;;;;;7.68;99.51;99992.66;3476077;83;98774;-83
2021/11/21 18:55:39;;;;;;;27.17;15.47;;;;;;;7.65;99.64;99991.44;3457363;83;98739;-82
2021/11/21 19:00:40;;;;;;;56.10;24.93;;;;;;;7.64;99.68;99999.42;3487969;83;98739;-83
2021/11/21 19:05:40;;;;;;;59.37;24.93;;;;;;;7.61;99.63;100014.43;3480269;83;98592;-83
2021/11/21 19:10:42;;;;;;;40.93;19.77;;;;;;;7.60;99.85;100019.13;3477365;83;99124;-83
2021/11/21 19:15:43;;;;;;;27.77;13.73;;;;;;;7.59;100.00;100018.12;3506285;83;99069;-83
2021/11/21 19:20:44;;;;;;;22.70;11.07;;;;;;;7.58;100.00;100027.50;3503141;81;98974;-83
2021/11/21 19:25:48;;;;;;;21.23;11.67;;;;;;;7.54;100.00;100030.19;3470163;83;99097;-83
2021/11/21 19:30:50;;;;;;;23.53;12.50;;;;;;;7.53;100.00;100040.91;3413237;84;99058;-83
2021/11/21 19:35:51;;;;;;;21.73;12.97;;;;;;;7.54;100.00;100052.66;3463552;83;98611;-83
2021/11/21 19:40:52;;;;;;;27.30;14.27;;;;;;;7.51;100.00;100051.44;3487198;83;99402;-83
2021/11/21 19:45:54;;;;;;;27.77;16.03;;;;;;;7.52;100.00;100060.46;3463304;83;99139;-83
2021/11/21 19:50:55;;;;;;;27.57;15.03;;;;;;;7.50;100.00;100069.59;3478194;83;99581;-83
2021/11/21 19:55:56;;;;;;;24.37;14.30;;;;;;;7.48;100.00;100070.55;3426971;84;99067;-85
2021/11/21 20:00:57;;;;;;;36.23;20.67;;;;;;;7.47;100.00;100068.38;3483145;83;99023;-84
2021/11/21 20:05:58;;;;;;;52.27;28.47;;;;;;;7.48;100.00;100073.29;3418472;84;98906;-84
2021/11/21 20:10:59;;;;;;;33.67;18.50;;;;;;;7.48;100.00;100088.34;3447903;84;98105;-84
2021/11/21 20:16:00;;;;;;;25.60;14.37;;;;;;;7.48;100.00;100085.61;3415695;84;98885;-84
2021/11/21 20:21:01;;;;;;;26.33;15.80;;;;;;;7.45;100.00;100090.43;3429701;84;99073;-84
2021/11/21 20:26:02;;;;;;;28.07;14.57;;;;;;;7.44;100.00;100093.77;3472990;83;99031;-84
2021/11/21 20:36:24;;;;;;;26.67;13.50;;;;;;;7.44;100.00;100094.33;3496731;83;98192;-85
2021/11/21 20:41:26;;;;;;;26.30;12.77;;;;;;;7.43;100.00;100105.08;3486521;83;99588;-84
2021/11/21 20:46:27;;;;;;;26.70;13.50;;;;;;;7.42;100.00;100106.23;3490188;83;99378;-84
2021/11/21 20:51:28;;;;;;;29.97;14.30;;;;;;;7.40;100.00;100106.59;3489279;83;139297;-84
2021/11/21 20:56:36;;;;;;;31.30;14.03;;;;;;;7.38;100.00;100115.75;3438559;83;98381;-84
2021/11/21 21:01:40;;;;;;;28.10;13.83;;;;;;;7.33;100.00;100122.89;3427930;84;158107;-84
2021/11/21 21:06:41;;;;;;;29.67;15.98;;;;;;;7.32;100.00;100132.83;3403305;84;1961214;-83
2021/11/21 21:11:44;;;;;;;27.67;14.23;;;;;;;7.25;100.00;100135.44;3413088;84;415822;-84
2021/11/21 21:16:46;;;;;;;27.20;14.77;;;;;;;7.16;100.00;100140.33;3422352;84;98317;-84
2021/11/21 21:21:50;;;;;;;30.90;16.43;;;;;;;7.07;100.00;100141.92;3412021;84;202972;-84
2021/11/21 21:26:54;;;;;;;28.40;16.37;;;;;;;7.01;100.00;100144.73;3408247;84;99228;-85
2021/11/21 21:32:00;;;;;;;31.87;17.07;;;;;;;6.94;100.00;100150.62;3403075;84;99079;-86
2021/11/21 21:37:10;;;;;;;30.62;16.52;;;;;;;6.83;100.00;100146.88;3439446;84;98252;-85
2021/11/21 21:42:10;;;;;;;32.20;16.60;;;;;;;6.69;100.00;100161.59;3435598;84;172721;-86
2021/11/21 21:47:15;;;;;;;28.02;15.60;;;;;;;6.60;100.00;100162.39;3411128;84;1554830;-86
2021/11/21 21:52:19;;;;;;;25.32;13.75;;;;;;;6.50;100.00;100170.55;3430145;82;99229;-86
2021/11/21 21:57:28;;;;;;;25.33;12.93;;;;;;;6.43;100.00;100170.98;3444780;84;98975;-86
2021/11/21 22:02:27;;;;;;;24.82;12.58;;;;;;;6.38;100.00;100176.72;3412543;84;98632;-86
2021/11/21 22:07:37;;;;;;;22.63;11.60;;;;;;;6.31;100.00;100177.33;3380160;86;99045;-86
2021/11/21 22:12:34;;;;;;;24.25;11.28;;;;;;;6.22;100.00;100182.18;3392000;84;364095;-86
2021/11/21 22:17:37;;;;;;;25.17;12.10;;;;;;;6.15;100.00;100177.92;3393284;86;179835;-86
2021/11/21 22:22:39;;;;;;;23.60;12.35;;;;;;;6.11;100.00;100185.82;3376387;86;98827;-88
2021/11/21 22:27:41;;;;;;;28.20;12.67;;;;;;;6.01;100.00;100198.05;3378963;86;271897;-86
2021/11/21 22:32:45;;;;;;;27.17;13.45;;;;;;;5.96;100.00;100196.16;3441241;84;99747;-86
2021/11/21 22:37:47;;;;;;;23.00;11.70;;;;;;;5.89;100.00;100204.19;3446296;84;144545;-85
2021/11/21 22:42:49;;;;;;;25.17;12.47;;;;;;;5.81;100.00;100210.02;3460029;83;98796;-85
2021/11/21 22:47:52;;;;;;;28.13;12.67;;;;;;;5.77;100.00;100211.83;3407408;85;25984;-86
2021/11/21 22:52:55;;;;;;;26.17;12.53;;;;;;;5.72;100.00;100225.73;3392237;85;98841;-86
2021/11/21 22:57:56;;;;;;;24.37;12.60;;;;;;;5.64;100.00;100221.80;3526797;82;98945;-86
2021/11/21 23:02:58;;;;;;;24.02;11.53;;;;;;;5.62;100.00;100224.88;3469528;83;99015;-86
2021/11/21 23:08:04;;;;;;;24.43;12.03;;;;;;;5.60;100.00;100223.08;3483253;83;99131;-87
2021/11/21 23:13:06;;;;;;;30.17;13.30;;;;;;;5.56;100.00;100222.17;3463149;82;101681;-86
2021/11/21 23:18:13;;;;;;;24.87;12.00;;;;;;;5.58;100.00;100228.66;3544978;82;25949;-87
2021/11/21 23:23:15;;;;;;;27.03;13.20;;;;;;;5.58;100.00;100240.37;3511910;82;98938;-86
2021/11/21 23:28:17;;;;;;;28.83;14.85;;;;;;;5.58;100.00;100239.02;3494450;82;193924;-86